Accueil
METAR-TAF:

METAR-TAF

Aéroports :

Porto Alegre, Rio Grande do Sul, Brésil

Aéroport international Salgado Filho

latitude: 30-00S, longitude: 051-11W, altitude: 3 m

Observation

Le bulletin a été fait il y a 34 minutes, à 06:00 UTC
Vent 3 kt de est
Température 17°C
Humidité 94%
Pression 1016 hPa
Visibilité 10 km ou plus
pas de nuages en-dessous de 1500 mètres et pas de cumulonimbus.

METAR: SBPA 240600Z 09003KT CAVOK 17/16 Q1016

Heure: 03:34 (06:34 UTC)

Prévision

Le bulletin a été fait il y a 3 heures et 34 minutes, à 03:00 UTC
Prévision valable du 24 à 06 UTC au 25 à 06 UTC
Vent 3 kt de est/nord-est
Visibilité 10 km ou plus
pas de nuages en-dessous de 1500 mètres et pas de cumulonimbus.
Probabilité 30% :
Temporairement
du 24 à 21 UTC au 25 à 03 UTC
Vent 6 kt de est

TAF: SBPA 240300Z 2406/2506 06003KT CAVOK TN19/2409Z TX32/2418Z PROB30 TEMPO 2421/2503 09006KT RMK PDN

Observations et prévisions météorologiques de plus de 4000 aéroports (messages METAR et TAF).

Les stations disponibles sont représentées par des disques jaunes et rouges sur la carte.

Passer la souris dessus pour voir le nom de la station.

Cliquer dessus pour voir les observations et prévisions météorologiques.

Pour changer de carte: cliquez sur les boutons verts avec une croix noire pour zoomer, sur le bouton vert avec un tiret pour effectuer un zoom arrière, ou sur les flèches vertes pour les cartes adjacentes.


METAR-TAF: